createdAt,value
2022-09-18T00:01:37.008Z,10.37
2022-09-18T00:04:06.518Z,10.40
2022-09-18T00:06:38.256Z,10.64
2022-09-18T00:09:08.357Z,10.40
2022-09-18T00:11:37.910Z,10.43
2022-09-18T00:14:06.759Z,10.20
2022-09-18T00:16:34.909Z,10.12
2022-09-18T00:19:03.060Z,10.21
2022-09-18T00:21:33.004Z,10.37
2022-09-18T00:24:03.042Z,10.20
2022-09-18T00:26:31.117Z,10.10
2022-09-18T00:28:59.714Z,10.52
2022-09-18T00:31:30.013Z,9.76
2022-09-18T00:33:58.882Z,10.22
2022-09-18T00:36:27.199Z,9.96
2022-09-18T00:38:55.326Z,9.87
2022-09-18T00:41:26.961Z,9.88
2022-09-18T00:43:56.991Z,10.03
2022-09-18T00:46:28.032Z,9.56
2022-09-18T00:49:04.294Z,9.17
2022-09-18T00:51:34.169Z,9.47
2022-09-18T00:54:06.907Z,9.65
2022-09-18T00:56:36.907Z,9.88
2022-09-18T00:59:08.176Z,9.72
2022-09-18T01:01:36.145Z,9.84
2022-09-18T01:04:04.217Z,10.00
2022-09-18T01:06:38.090Z,10.09
2022-09-18T01:09:27.689Z,10.05
2022-09-18T01:12:02.400Z,10.02
2022-09-18T01:14:34.604Z,10.13
2022-09-18T01:17:07.794Z,9.78
2022-09-18T01:19:49.628Z,10.03
2022-09-18T01:22:26.550Z,9.73
2022-09-18T01:25:02.372Z,9.76
2022-09-18T01:27:37.433Z,9.61
2022-09-18T01:30:08.547Z,9.67
2022-09-18T01:32:41.892Z,9.69
2022-09-18T01:35:36.696Z,10.05
2022-09-18T01:38:05.241Z,9.44
2022-09-18T01:40:35.554Z,9.34
2022-09-18T01:43:06.029Z,9.65
2022-09-18T01:45:37.852Z,9.65
2022-09-18T01:48:08.102Z,9.59
2022-09-18T01:50:39.188Z,9.69
2022-09-18T01:53:10.075Z,9.59
2022-09-18T01:55:40.009Z,9.50
2022-09-18T01:58:11.253Z,9.78
2022-09-18T02:00:43.679Z,9.48
2022-09-18T02:03:13.389Z,9.72
2022-09-18T02:05:44.954Z,9.66
2022-09-18T02:08:15.522Z,9.87
2022-09-18T02:10:46.136Z,9.83
2022-09-18T02:13:16.386Z,9.92
2022-09-18T02:15:48.543Z,9.78
2022-09-18T02:18:19.379Z,9.57
2022-09-18T02:20:48.694Z,9.58
2022-09-18T02:23:17.156Z,9.61
2022-09-18T02:25:53.477Z,9.58
2022-09-18T02:28:23.623Z,9.87
2022-09-18T02:30:53.058Z,9.69
2022-09-18T02:33:29.064Z,9.71
2022-09-18T02:36:10.974Z,9.92
2022-09-18T02:38:45.633Z,10.25
2022-09-18T02:41:18.887Z,9.75
2022-09-18T02:43:51.225Z,10.11
2022-09-18T02:46:30.365Z,9.91
2022-09-18T02:49:06.918Z,9.54
2022-09-18T02:51:44.705Z,9.31
2022-09-18T02:54:15.129Z,9.65
2022-09-18T02:56:46.650Z,9.62
2022-09-18T02:59:19.605Z,9.27
2022-09-18T03:01:50.121Z,9.52
2022-09-18T03:04:22.269Z,9.57
2022-09-18T03:06:50.766Z,9.73
2022-09-18T03:09:18.742Z,9.57
2022-09-18T03:11:46.983Z,9.52
2022-09-18T03:14:15.266Z,9.41
2022-09-18T03:16:43.358Z,9.57
2022-09-18T03:19:14.878Z,9.88
2022-09-18T03:21:42.886Z,9.65
2022-09-18T03:24:11.128Z,9.35
2022-09-18T03:26:39.226Z,9.47
2022-09-18T03:29:09.641Z,9.31
2022-09-18T03:31:37.966Z,9.44
2022-09-18T03:34:06.350Z,9.44
2022-09-18T03:36:35.765Z,9.15
2022-09-18T03:39:03.874Z,9.14
2022-09-18T03:41:31.946Z,9.43
2022-09-18T03:43:59.919Z,9.32
2022-09-18T03:46:27.992Z,9.47
2022-09-18T03:48:56.684Z,9.41
2022-09-18T03:51:24.723Z,9.38
2022-09-18T03:53:54.142Z,9.56
2022-09-18T03:56:22.263Z,9.26
2022-09-18T03:58:50.282Z,9.36
2022-09-18T04:01:18.178Z,9.33
2022-09-18T04:03:46.156Z,9.21
2022-09-18T04:06:14.131Z,9.15
2022-09-18T04:08:42.261Z,8.91
2022-09-18T04:11:11.579Z,9.25
2022-09-18T04:13:39.482Z,9.07
2022-09-18T04:16:08.307Z,9.07
2022-09-18T04:18:36.568Z,9.23
2022-09-18T04:21:04.724Z,9.29
2022-09-18T04:23:32.673Z,9.32
2022-09-18T04:26:01.986Z,9.34
2022-09-18T04:28:31.642Z,9.04
2022-09-18T04:31:00.125Z,9.25
2022-09-18T04:33:28.257Z,9.24
2022-09-18T04:35:57.148Z,9.27
2022-09-18T04:38:27.739Z,9.26
2022-09-18T04:40:57.274Z,8.91
2022-09-18T04:43:25.739Z,9.34
2022-09-18T04:45:55.260Z,8.79
2022-09-18T04:48:23.599Z,9.03
2022-09-18T04:50:51.527Z,9.00
2022-09-18T04:53:19.799Z,9.15
2022-09-18T04:55:48.689Z,9.32
2022-09-18T04:58:18.057Z,9.26
2022-09-18T05:00:46.049Z,9.23
2022-09-18T05:03:15.419Z,8.91
2022-09-18T05:05:43.598Z,8.99
2022-09-18T05:08:11.570Z,9.02
2022-09-18T05:10:39.791Z,8.81
2022-09-18T05:13:07.695Z,9.09
2022-09-18T05:15:35.650Z,8.61
2022-09-18T05:18:10.495Z,9.00
2022-09-18T05:20:41.216Z,8.84
2022-09-18T05:23:09.127Z,9.03
2022-09-18T05:25:37.176Z,8.93
2022-09-18T05:28:05.695Z,9.12
2022-09-18T05:30:33.997Z,8.91
2022-09-18T05:33:03.104Z,8.96
2022-09-18T05:35:33.000Z,8.93
2022-09-18T05:38:02.572Z,9.10
2022-09-18T05:40:33.895Z,8.63
2022-09-18T05:43:03.040Z,9.19
2022-09-18T05:45:31.479Z,8.67
2022-09-18T05:48:00.767Z,8.99
2022-09-18T05:50:29.581Z,8.83
2022-09-18T05:53:03.107Z,9.06
2022-09-18T05:55:32.086Z,9.11
2022-09-18T05:58:01.340Z,8.94
2022-09-18T06:00:31.252Z,8.71
2022-09-18T06:03:00.855Z,8.68
2022-09-18T06:05:30.514Z,8.94
2022-09-18T06:08:00.062Z,9.10
2022-09-18T06:10:30.523Z,9.07
2022-09-18T06:13:02.649Z,9.08
2022-09-18T06:15:30.803Z,9.25
2022-09-18T06:17:58.829Z,9.26
2022-09-18T06:20:27.045Z,9.24
2022-09-18T06:22:55.318Z,9.32
2022-09-18T06:25:23.978Z,9.04
2022-09-18T06:27:58.865Z,9.13
2022-09-18T06:30:27.534Z,9.26
2022-09-18T06:32:56.952Z,9.16
2022-09-18T06:35:25.290Z,9.04
2022-09-18T06:37:53.290Z,9.18
2022-09-18T06:40:21.434Z,9.38
2022-09-18T06:42:49.510Z,9.46
2022-09-18T06:45:18.891Z,9.31
2022-09-18T06:47:46.879Z,9.50
2022-09-18T06:50:14.879Z,9.41
2022-09-18T06:52:42.933Z,9.44
2022-09-18T06:55:10.895Z,9.32
2022-09-18T06:57:38.880Z,9.42
2022-09-18T07:00:09.293Z,9.46
2022-09-18T07:02:38.945Z,9.60
2022-09-18T07:05:07.335Z,9.60
2022-09-18T07:07:35.288Z,9.78
2022-09-18T07:10:08.306Z,9.86
2022-09-18T07:12:37.005Z,9.96
2022-09-18T07:15:05.702Z,9.73
2022-09-18T07:17:33.858Z,9.63
2022-09-18T07:20:03.525Z,9.61
2022-09-18T07:22:31.551Z,9.59
2022-09-18T07:24:59.612Z,9.70
2022-09-18T07:27:27.547Z,9.69
2022-09-18T07:29:55.645Z,9.65
2022-09-18T07:32:23.740Z,9.72
2022-09-18T07:34:51.994Z,9.98
2022-09-18T07:37:21.332Z,10.25
2022-09-18T07:39:49.716Z,10.23
2022-09-18T07:42:17.685Z,10.31
2022-09-18T07:44:45.643Z,10.28
2022-09-18T07:47:13.854Z,10.14
2022-09-18T07:49:42.719Z,10.45
2022-09-18T07:52:10.783Z,10.76
2022-09-18T07:54:40.307Z,10.87
2022-09-18T07:57:08.243Z,10.70
2022-09-18T07:59:36.211Z,10.69
2022-09-18T08:02:06.078Z,10.79
2022-09-18T08:04:34.142Z,10.75
2022-09-18T08:07:04.337Z,11.00
2022-09-18T08:09:32.480Z,11.07
2022-09-18T08:12:04.017Z,11.31
2022-09-18T08:14:32.131Z,11.30
2022-09-18T08:17:00.104Z,11.51
2022-09-18T08:19:28.057Z,11.64
2022-09-18T08:21:55.979Z,11.68
2022-09-18T08:24:24.708Z,11.81
2022-09-18T08:26:52.718Z,11.81
2022-09-18T08:29:23.174Z,11.89
2022-09-18T08:31:51.342Z,11.91
2022-09-18T08:34:19.407Z,11.95
2022-09-18T08:36:47.566Z,11.95
2022-09-18T08:39:15.613Z,11.87
2022-09-18T08:41:59.994Z,11.91
2022-09-18T08:44:30.938Z,11.75
2022-09-18T08:47:04.086Z,11.99
2022-09-18T08:49:35.167Z,12.13
2022-09-18T08:52:06.429Z,12.27
2022-09-18T08:54:52.209Z,12.23
2022-09-18T08:57:25.025Z,12.49
2022-09-18T08:59:57.877Z,12.32
2022-09-18T09:02:39.651Z,12.27
2022-09-18T09:05:12.815Z,12.09
2022-09-18T09:08:05.590Z,12.07
2022-09-18T09:10:42.392Z,12.01
2022-09-18T09:13:28.135Z,12.02
2022-09-18T09:16:00.820Z,11.92
2022-09-18T09:18:33.137Z,12.02
2022-09-18T09:21:09.926Z,12.19
2022-09-18T09:23:47.578Z,12.41
2022-09-18T09:26:18.760Z,12.69
2022-09-18T09:28:54.143Z,12.79
2022-09-18T09:31:25.994Z,12.51
2022-09-18T09:34:00.368Z,11.86
2022-09-18T09:36:30.589Z,9.54
2022-09-18T09:39:01.765Z,8.88
2022-09-18T09:41:34.054Z,8.83
2022-09-18T09:44:10.510Z,9.32
2022-09-18T09:46:51.728Z,10.27
2022-09-18T09:49:23.559Z,9.54
2022-09-18T09:51:58.327Z,9.90
2022-09-18T09:54:27.001Z,10.49
2022-09-18T09:57:02.437Z,10.33
2022-09-18T09:59:40.254Z,10.08
2022-09-18T10:02:33.863Z,10.27
2022-09-18T10:05:13.696Z,10.96
2022-09-18T10:07:52.797Z,10.64
2022-09-18T10:10:36.552Z,10.48
2022-09-18T10:13:08.192Z,11.09
2022-09-18T10:15:39.061Z,11.40
2022-09-18T10:18:16.327Z,11.91
2022-09-18T10:20:45.524Z,11.76
2022-09-18T10:23:16.475Z,11.61
2022-09-18T10:25:48.212Z,11.73
2022-09-18T10:28:16.544Z,11.55
2022-09-18T10:30:55.786Z,12.03
2022-09-18T10:33:37.141Z,12.08
2022-09-18T10:36:12.881Z,12.31
2022-09-18T10:38:40.861Z,12.61
2022-09-18T10:41:18.093Z,12.56
2022-09-18T10:44:00.149Z,12.69
2022-09-18T10:46:30.401Z,12.90
2022-09-18T10:49:04.715Z,12.50
2022-09-18T10:51:32.655Z,12.98
2022-09-18T10:54:05.777Z,12.86
2022-09-18T10:56:33.990Z,13.20
2022-09-18T10:59:19.101Z,13.43
2022-09-18T11:01:47.073Z,13.08
2022-09-18T11:04:18.170Z,12.86
2022-09-18T11:06:47.722Z,12.63
2022-09-18T11:09:19.998Z,13.02
2022-09-18T11:11:51.438Z,11.95
2022-09-18T11:14:21.829Z,12.00
2022-09-18T11:16:51.495Z,11.86
2022-09-18T11:19:27.274Z,11.24
2022-09-18T11:21:56.786Z,11.32
2022-09-18T11:24:27.067Z,11.52
2022-09-18T11:26:56.902Z,10.86
2022-09-18T11:29:30.791Z,11.37
2022-09-18T11:32:04.366Z,11.55
2022-09-18T11:34:38.312Z,11.43
2022-09-18T11:37:08.791Z,10.85
2022-09-18T11:39:39.396Z,10.75
2022-09-18T11:42:11.963Z,10.43
2022-09-18T11:44:40.693Z,10.59
2022-09-18T11:47:33.725Z,10.95
2022-09-18T11:50:13.143Z,10.67
2022-09-18T11:52:45.341Z,11.00
2022-09-18T11:55:24.159Z,12.04
2022-09-18T11:57:54.722Z,12.45
2022-09-18T12:00:24.456Z,12.16
2022-09-18T12:03:00.639Z,12.04
2022-09-18T12:05:34.535Z,12.42
2022-09-18T12:08:07.300Z,12.51
2022-09-18T12:10:54.444Z,12.61
2022-09-18T12:13:40.367Z,13.09
2022-09-18T12:16:15.701Z,12.80
2022-09-18T12:18:49.785Z,13.31
2022-09-18T12:21:23.959Z,13.37
2022-09-18T12:23:51.887Z,12.87
2022-09-18T12:26:24.404Z,12.59
2022-09-18T12:29:07.875Z,12.54
2022-09-18T12:31:40.819Z,12.22
2022-09-18T12:34:14.361Z,11.03
2022-09-18T12:36:57.897Z,11.76
2022-09-18T12:39:55.242Z,11.11
2022-09-18T12:42:38.611Z,11.69
2022-09-18T12:45:54.194Z,11.59
2022-09-18T12:48:41.939Z,12.34
2022-09-18T12:51:20.066Z,12.48
2022-09-18T12:54:05.872Z,12.22
2022-09-18T12:56:57.187Z,12.96
2022-09-18T12:59:44.748Z,12.72
2022-09-18T13:02:27.154Z,13.03
2022-09-18T13:04:59.835Z,13.64
2022-09-18T13:07:31.585Z,13.63
2022-09-18T13:10:04.931Z,13.30
2022-09-18T13:12:36.870Z,12.99
2022-09-18T13:15:10.428Z,12.48
2022-09-18T13:17:43.904Z,12.38
2022-09-18T13:20:17.215Z,12.95
2022-09-18T13:22:47.529Z,13.65
2022-09-18T13:25:27.063Z,13.53
2022-09-18T13:27:56.106Z,13.66
2022-09-18T13:30:26.883Z,13.90
2022-09-18T13:32:56.885Z,14.16
2022-09-18T13:35:27.411Z,13.92
2022-09-18T13:38:16.936Z,14.61
2022-09-18T13:40:47.981Z,14.20
2022-09-18T13:43:32.771Z,13.50
2022-09-18T13:46:06.175Z,14.26
2022-09-18T13:48:36.372Z,14.30
2022-09-18T13:51:06.022Z,13.38
2022-09-18T13:53:40.692Z,13.89
2022-09-18T13:56:11.219Z,13.27
2022-09-18T13:58:50.083Z,12.48
2022-09-18T14:01:51.446Z,13.57
2022-09-18T14:04:51.289Z,13.12
2022-09-18T14:07:46.079Z,13.63
2022-09-18T14:10:24.470Z,13.23
2022-09-18T14:13:22.051Z,12.82
2022-09-18T14:15:55.666Z,13.18
2022-09-18T14:18:26.500Z,12.60
2022-09-18T14:20:56.577Z,12.59
2022-09-18T14:24:09.487Z,12.14
2022-09-18T14:26:58.584Z,12.95
2022-09-18T14:29:31.891Z,12.63
2022-09-18T14:32:01.298Z,12.32
2022-09-18T14:34:36.850Z,12.72
2022-09-18T14:37:22.604Z,12.21
2022-09-18T14:39:50.864Z,12.14
2022-09-18T14:42:28.618Z,12.41
2022-09-18T14:45:08.853Z,12.23
2022-09-18T14:47:36.920Z,11.87
2022-09-18T14:50:20.173Z,12.02
2022-09-18T14:52:48.298Z,12.09
2022-09-18T14:55:22.770Z,12.75
2022-09-18T14:57:53.693Z,13.48
2022-09-18T15:00:44.308Z,13.19
2022-09-18T15:03:19.879Z,13.04
2022-09-18T15:05:50.236Z,12.18
2022-09-18T15:08:26.701Z,12.46
2022-09-18T15:10:55.297Z,12.47
2022-09-18T15:13:23.391Z,13.28
2022-09-18T15:16:01.068Z,13.25
2022-09-18T15:18:30.446Z,13.33
2022-09-18T15:21:01.912Z,12.42
2022-09-18T15:23:31.300Z,12.25
2022-09-18T15:26:03.654Z,12.17
2022-09-18T15:28:33.866Z,12.46
2022-09-18T15:31:06.266Z,12.21
2022-09-18T15:33:35.091Z,12.12
2022-09-18T15:36:04.590Z,11.76
2022-09-18T15:38:42.057Z,11.87
2022-09-18T15:41:30.554Z,11.24
2022-09-18T15:43:58.651Z,11.24
2022-09-18T15:46:29.416Z,11.65
2022-09-18T15:49:00.542Z,11.65
2022-09-18T15:51:30.388Z,11.28
2022-09-18T15:54:24.819Z,11.27
2022-09-18T15:56:54.172Z,10.97
2022-09-18T15:59:27.777Z,11.15
2022-09-18T16:01:57.778Z,10.96
2022-09-18T16:04:27.179Z,11.21
2022-09-18T16:06:58.262Z,11.08
2022-09-18T16:09:34.908Z,11.32
2022-09-18T16:12:03.389Z,11.01
2022-09-18T16:14:46.197Z,11.05
2022-09-18T16:17:41.344Z,10.85
2022-09-18T16:20:25.551Z,11.26
2022-09-18T16:22:55.998Z,11.42
2022-09-18T16:25:27.495Z,11.22
2022-09-18T16:27:57.119Z,11.62
2022-09-18T16:30:25.043Z,11.27
2022-09-18T16:33:00.030Z,11.28
2022-09-18T16:35:28.024Z,10.97
2022-09-18T16:37:56.117Z,10.58
2022-09-18T16:40:27.716Z,10.85
2022-09-18T16:42:58.452Z,11.07
2022-09-18T16:45:27.893Z,10.88
2022-09-18T16:48:00.610Z,10.75
2022-09-18T16:50:28.967Z,10.26
2022-09-18T16:53:01.149Z,10.97
2022-09-18T16:55:29.989Z,10.78
2022-09-18T16:57:58.387Z,10.77
2022-09-18T17:00:26.514Z,10.27
2022-09-18T17:02:54.815Z,10.99
2022-09-18T17:05:24.189Z,10.57
2022-09-18T17:07:52.118Z,10.48
2022-09-18T17:10:20.250Z,10.57
2022-09-18T17:12:48.188Z,10.63
2022-09-18T17:15:16.357Z,10.61
2022-09-18T17:17:45.669Z,10.70
2022-09-18T17:20:17.730Z,10.72
2022-09-18T17:22:47.591Z,10.83
2022-09-18T17:25:16.471Z,10.15
2022-09-18T17:27:44.575Z,10.61
2022-09-18T17:30:13.701Z,10.43
2022-09-18T17:32:41.810Z,9.76
2022-09-18T17:35:09.805Z,10.07
2022-09-18T17:37:37.910Z,10.01
2022-09-18T17:40:11.183Z,10.42
2022-09-18T17:42:39.602Z,9.81
2022-09-18T17:45:08.371Z,10.16
2022-09-18T17:47:36.439Z,10.30
2022-09-18T17:50:05.600Z,10.56
2022-09-18T17:52:35.794Z,10.03
2022-09-18T17:55:03.954Z,10.34
2022-09-18T17:57:33.245Z,10.02
2022-09-18T18:00:01.164Z,9.76
2022-09-18T18:02:29.295Z,9.78
2022-09-18T18:04:57.275Z,9.92
2022-09-18T18:07:25.264Z,9.96
2022-09-18T18:09:53.198Z,9.79
2022-09-18T18:12:21.130Z,9.87
2022-09-18T18:14:50.450Z,9.94
2022-09-18T18:17:19.494Z,9.85
2022-09-18T18:19:47.427Z,9.70
2022-09-18T18:22:15.367Z,9.46
2022-09-18T18:24:43.337Z,9.46
2022-09-18T18:27:11.251Z,9.70
2022-09-18T18:29:39.808Z,9.45
2022-09-18T18:32:09.311Z,9.51
2022-09-18T18:34:37.220Z,9.39
2022-09-18T18:37:05.980Z,9.76
2022-09-18T18:39:33.962Z,9.78
2022-09-18T18:42:01.848Z,9.63
2022-09-18T18:44:29.763Z,9.33
2022-09-18T18:46:59.235Z,9.12
2022-09-18T18:49:28.893Z,8.90
2022-09-18T18:51:57.293Z,8.92
2022-09-18T18:54:25.367Z,9.26
2022-09-18T18:56:53.354Z,9.20
2022-09-18T18:59:23.077Z,9.37
2022-09-18T19:01:51.104Z,9.43
2022-09-18T19:04:20.040Z,9.55
2022-09-18T19:06:50.165Z,9.20
2022-09-18T19:09:20.918Z,8.80
2022-09-18T19:11:50.148Z,9.13
2022-09-18T19:14:19.416Z,9.20
2022-09-18T19:16:48.376Z,8.95
2022-09-18T19:19:17.679Z,8.95
2022-09-18T19:21:45.600Z,8.89
2022-09-18T19:24:15.683Z,9.01
2022-09-18T19:26:44.164Z,9.19
2022-09-18T19:29:13.867Z,9.23
2022-09-18T19:31:44.307Z,9.56
2022-09-18T19:34:13.167Z,9.62
2022-09-18T19:36:41.433Z,9.18
2022-09-18T19:39:12.060Z,9.11
2022-09-18T19:41:44.478Z,9.44
2022-09-18T19:44:15.782Z,9.22
2022-09-18T19:46:43.761Z,9.36
2022-09-18T19:49:17.129Z,9.01
2022-09-18T19:51:45.507Z,9.03
2022-09-18T19:54:13.642Z,9.02
2022-09-18T19:56:48.372Z,9.09
2022-09-18T19:59:16.826Z,9.18
2022-09-18T20:01:45.341Z,9.13
2022-09-18T20:04:13.303Z,9.25
2022-09-18T20:06:42.456Z,9.34
2022-09-18T20:09:10.665Z,9.31
2022-09-18T20:11:38.739Z,9.44
2022-09-18T20:14:08.074Z,9.76
2022-09-18T20:16:36.061Z,9.61
2022-09-18T20:19:06.474Z,9.68
2022-09-18T20:21:34.424Z,9.67
2022-09-18T20:24:02.681Z,9.79
2022-09-18T20:26:30.701Z,9.81
2022-09-18T20:28:58.634Z,9.73
2022-09-18T20:31:27.975Z,9.71
2022-09-18T20:33:56.853Z,9.94
2022-09-18T20:36:25.667Z,10.03
2022-09-18T20:38:58.154Z,9.94
2022-09-18T20:41:28.131Z,10.07
2022-09-18T20:43:56.324Z,9.95
2022-09-18T20:46:24.845Z,9.96
2022-09-18T20:48:55.202Z,9.98
2022-09-18T20:51:25.800Z,10.02
2022-09-18T20:53:56.217Z,10.09
2022-09-18T20:56:24.859Z,9.90
2022-09-18T20:58:53.128Z,9.92
2022-09-18T21:01:23.087Z,10.00
2022-09-18T21:03:56.668Z,10.01
2022-09-18T21:06:26.207Z,10.06
2022-09-18T21:08:55.433Z,10.06
2022-09-18T21:11:27.549Z,10.02
2022-09-18T21:13:57.607Z,10.14
2022-09-18T21:16:26.748Z,10.20
2022-09-18T21:18:59.119Z,10.25
2022-09-18T21:21:28.377Z,10.16
2022-09-18T21:24:01.424Z,10.08
2022-09-18T21:26:33.090Z,10.22
2022-09-18T21:29:07.003Z,10.15
2022-09-18T21:31:38.533Z,10.28
2022-09-18T21:34:07.885Z,10.33
2022-09-18T21:36:38.582Z,10.17
2022-09-18T21:39:08.472Z,10.23
2022-09-18T21:41:38.665Z,10.16
2022-09-18T21:44:08.993Z,10.18
2022-09-18T21:46:38.306Z,10.27
2022-09-18T21:49:09.467Z,10.26
2022-09-18T21:51:40.272Z,10.26
2022-09-18T21:54:09.863Z,10.27
2022-09-18T21:56:37.895Z,10.25
2022-09-18T21:59:06.115Z,10.19
2022-09-18T22:01:36.870Z,10.19
2022-09-18T22:04:07.395Z,10.11
2022-09-18T22:06:40.185Z,10.12
2022-09-18T22:09:10.342Z,10.23
2022-09-18T22:11:38.882Z,10.18
2022-09-18T22:14:09.052Z,10.25
2022-09-18T22:16:37.470Z,10.42
2022-09-18T22:19:06.254Z,10.43
2022-09-18T22:21:37.266Z,10.21
2022-09-18T22:24:08.970Z,10.28
2022-09-18T22:26:38.500Z,10.20
2022-09-18T22:29:07.551Z,10.11
2022-09-18T22:31:37.073Z,10.07
2022-09-18T22:34:05.384Z,10.01
2022-09-18T22:36:33.557Z,9.85
2022-09-18T22:39:02.904Z,9.74
2022-09-18T22:41:30.877Z,9.92
2022-09-18T22:43:59.132Z,9.88
2022-09-18T22:46:27.200Z,9.75
2022-09-18T22:48:55.170Z,9.93
2022-09-18T22:51:27.316Z,9.87
2022-09-18T22:53:57.619Z,9.73
2022-09-18T22:56:28.663Z,9.75
2022-09-18T22:58:57.755Z,9.65
2022-09-18T23:01:28.013Z,9.67
2022-09-18T23:03:58.024Z,9.70
2022-09-18T23:06:26.928Z,9.68
2022-09-18T23:08:55.136Z,9.64
2022-09-18T23:11:25.401Z,9.58
2022-09-18T23:13:57.067Z,9.64
2022-09-18T23:16:27.624Z,9.65
2022-09-18T23:18:58.082Z,9.73
2022-09-18T23:21:27.550Z,9.62
2022-09-18T23:23:56.500Z,9.47
2022-09-18T23:26:26.075Z,9.48
2022-09-18T23:28:57.644Z,9.55
2022-09-18T23:31:28.251Z,9.69
2022-09-18T23:33:59.734Z,9.69
2022-09-18T23:36:29.829Z,9.59
2022-09-18T23:38:59.275Z,9.60
2022-09-18T23:41:30.151Z,9.42
2022-09-18T23:43:59.480Z,9.52
2022-09-18T23:46:27.694Z,9.35
2022-09-18T23:48:56.091Z,9.27
2022-09-18T23:51:25.302Z,9.15
2022-09-18T23:53:53.744Z,9.18
2022-09-18T23:56:23.569Z,9.19
2022-09-18T23:58:54.408Z,9.08
